createdAt,value
2019-03-08T05:58:52.925Z,21.86
2019-03-08T06:14:46.152Z,22.80
2019-03-08T06:15:46.144Z,22.76
2019-03-08T06:16:46.137Z,22.90
2019-03-08T06:17:46.190Z,22.80
2019-03-08T06:18:46.105Z,22.91
2019-03-08T06:19:46.099Z,22.86
2019-03-08T06:20:17.662Z,22.86
2019-03-08T06:28:37.623Z,23.00
2019-03-08T06:30:37.620Z,23.09
2019-03-08T06:37:37.577Z,23.01
2019-03-08T06:48:45.260Z,23.20
2019-03-08T06:49:45.275Z,23.22
2019-03-08T06:50:45.276Z,23.25
2019-03-08T06:51:45.274Z,23.20
2019-03-08T06:52:45.277Z,23.35
2019-03-08T06:53:45.280Z,23.27
2019-03-08T06:54:45.277Z,23.28
2019-03-08T06:56:04.072Z,23.30
2019-03-08T07:02:39.650Z,23.17
2019-03-08T07:03:39.665Z,23.20
2019-03-08T07:04:39.660Z,23.28
2019-03-08T07:05:39.658Z,23.25
2019-03-08T07:06:39.652Z,23.17
2019-03-08T07:07:39.652Z,23.22
2019-03-08T07:08:39.646Z,23.22
2019-03-08T07:09:39.636Z,23.22
2019-03-08T07:10:39.624Z,23.20
2019-03-08T07:11:39.627Z,23.30
2019-03-08T07:12:39.609Z,23.32
2019-03-08T07:14:28.499Z,000023.31
2019-03-08T07:15:28.429Z,000023.25
2019-03-08T07:15:54.543Z,23.31
2019-03-08T07:16:54.520Z,23.31
2019-03-08T07:17:54.573Z,23.32
2019-03-08T07:18:31.977Z,23.30
2019-03-08T07:19:40.321Z,23.23
2019-03-08T07:20:32.908Z,23.19
2019-03-08T07:21:31.853Z,23.35
2019-03-08T07:22:31.818Z,23.37
2019-03-08T07:23:31.773Z,23.28
2019-03-08T07:24:31.729Z,23.34
2019-03-08T07:25:31.685Z,23.35
2019-03-08T07:26:31.645Z,23.28
2019-03-08T07:27:31.593Z,23.27
2019-03-08T07:28:31.547Z,23.35
2019-03-08T07:29:31.500Z,23.20
2019-03-08T07:30:31.467Z,23.19
2019-03-08T07:31:31.466Z,23.22
2019-03-08T07:32:31.445Z,23.28
2019-03-08T07:33:53.100Z,23.30
2019-03-08T07:34:48.243Z,23.25
2019-03-08T07:35:48.220Z,23.22
2019-03-08T07:36:48.196Z,23.28
2019-03-08T07:37:48.167Z,23.28
2019-03-08T07:38:48.139Z,23.30
2019-03-08T07:39:48.115Z,23.28
2019-03-08T07:40:48.166Z,23.27
2019-03-08T07:41:48.074Z,23.30
2019-03-08T07:42:48.053Z,23.25
